sensor_id;sensor_type;location;lat;lon;timestamp;P1;durP1;ratioP1;P2;durP2;ratioP2
33593;SDS011;19920;52.242;20.940;2023-01-30T00:00:22;28.23;;;16.08;;
33593;SDS011;19920;52.242;20.940;2023-01-30T00:02:47;26.25;;;16.27;;
33593;SDS011;19920;52.242;20.940;2023-01-30T00:05:13;25.73;;;15.10;;
33593;SDS011;19920;52.242;20.940;2023-01-30T00:07:38;26.08;;;15.43;;
33593;SDS011;19920;52.242;20.940;2023-01-30T00:10:04;26.83;;;15.05;;
33593;SDS011;19920;52.242;20.940;2023-01-30T00:12:30;25.52;;;15.32;;
33593;SDS011;19920;52.242;20.940;2023-01-30T00:14:56;21.67;;;13.85;;
33593;SDS011;19920;52.242;20.940;2023-01-30T00:17:21;24.65;;;14.18;;
33593;SDS011;19920;52.242;20.940;2023-01-30T00:19:47;23.65;;;14.60;;
33593;SDS011;19920;52.242;20.940;2023-01-30T00:22:12;25.48;;;14.93;;
33593;SDS011;19920;52.242;20.940;2023-01-30T00:24:38;23.48;;;14.27;;
33593;SDS011;19920;52.242;20.940;2023-01-30T00:27:04;24.77;;;14.23;;
33593;SDS011;19920;52.242;20.940;2023-01-30T00:29:29;24.20;;;14.02;;
33593;SDS011;19920;52.242;20.940;2023-01-30T00:31:55;24.23;;;14.48;;
33593;SDS011;19920;52.242;20.940;2023-01-30T00:34:20;26.75;;;14.60;;
33593;SDS011;19920;52.242;20.940;2023-01-30T00:36:46;25.85;;;15.63;;
33593;SDS011;19920;52.242;20.940;2023-01-30T00:39:12;24.00;;;14.40;;
33593;SDS011;19920;52.242;20.940;2023-01-30T00:41:37;22.95;;;14.45;;
33593;SDS011;19920;52.242;20.940;2023-01-30T00:44:21;21.90;;;13.82;;
33593;SDS011;19920;52.242;20.940;2023-01-30T00:47:05;25.27;;;15.15;;
33593;SDS011;19920;52.242;20.940;2023-01-30T00:49:32;25.27;;;14.73;;
33593;SDS011;19920;52.242;20.940;2023-01-30T00:51:59;26.13;;;14.85;;
33593;SDS011;19920;52.242;20.940;2023-01-30T00:54:24;25.73;;;15.35;;
33593;SDS011;19920;52.242;20.940;2023-01-30T00:56:50;23.67;;;14.40;;
33593;SDS011;19920;52.242;20.940;2023-01-30T00:59:15;21.60;;;13.48;;
33593;SDS011;19920;52.242;20.940;2023-01-30T01:01:41;23.52;;;14.25;;
33593;SDS011;19920;52.242;20.940;2023-01-30T01:04:07;22.05;;;13.90;;
33593;SDS011;19920;52.242;20.940;2023-01-30T01:06:34;24.42;;;14.75;;
33593;SDS011;19920;52.242;20.940;2023-01-30T01:09:00;22.77;;;14.50;;
33593;SDS011;19920;52.242;20.940;2023-01-30T01:11:27;20.95;;;14.18;;
33593;SDS011;19920;52.242;20.940;2023-01-30T01:13:53;23.90;;;14.05;;
33593;SDS011;19920;52.242;20.940;2023-01-30T01:16:21;22.00;;;13.30;;
33593;SDS011;19920;52.242;20.940;2023-01-30T01:18:47;21.05;;;13.07;;
33593;SDS011;19920;52.242;20.940;2023-01-30T01:21:14;21.67;;;12.70;;
33593;SDS011;19920;52.242;20.940;2023-01-30T01:23:39;20.02;;;12.60;;
33593;SDS011;19920;52.242;20.940;2023-01-30T01:26:05;19.92;;;12.40;;
33593;SDS011;19920;52.242;20.940;2023-01-30T01:28:31;20.00;;;11.60;;
33593;SDS011;19920;52.242;20.940;2023-01-30T01:30:56;17.67;;;11.60;;
33593;SDS011;19920;52.242;20.940;2023-01-30T01:33:28;20.33;;;11.98;;
33593;SDS011;19920;52.242;20.940;2023-01-30T01:35:54;17.33;;;11.13;;
33593;SDS011;19920;52.242;20.940;2023-01-30T01:38:20;16.85;;;10.23;;
33593;SDS011;19920;52.242;20.940;2023-01-30T01:40:46;16.63;;;10.20;;
33593;SDS011;19920;52.242;20.940;2023-01-30T01:43:29;16.23;;;10.65;;
33593;SDS011;19920;52.242;20.940;2023-01-30T01:46:01;14.82;;;10.00;;
33593;SDS011;19920;52.242;20.940;2023-01-30T01:48:43;17.52;;;10.98;;
33593;SDS011;19920;52.242;20.940;2023-01-30T01:51:16;14.57;;;9.80;;
33593;SDS011;19920;52.242;20.940;2023-01-30T01:53:57;17.38;;;10.32;;
33593;SDS011;19920;52.242;20.940;2023-01-30T01:56:28;17.45;;;9.90;;
33593;SDS011;19920;52.242;20.940;2023-01-30T01:58:56;15.68;;;10.25;;
33593;SDS011;19920;52.242;20.940;2023-01-30T02:01:27;15.20;;;10.02;;
33593;SDS011;19920;52.242;20.940;2023-01-30T02:03:55;16.63;;;10.50;;
33593;SDS011;19920;52.242;20.940;2023-01-30T02:06:25;14.48;;;9.38;;
33593;SDS011;19920;52.242;20.940;2023-01-30T02:08:53;15.15;;;9.77;;
33593;SDS011;19920;52.242;20.940;2023-01-30T02:11:46;14.27;;;8.82;;
33593;SDS011;19920;52.242;20.940;2023-01-30T02:14:11;14.18;;;8.50;;
33593;SDS011;19920;52.242;20.940;2023-01-30T02:16:39;17.40;;;9.82;;
33593;SDS011;19920;52.242;20.940;2023-01-30T02:19:09;14.90;;;8.75;;
33593;SDS011;19920;52.242;20.940;2023-01-30T02:36:12;18.45;;;11.63;;
33593;SDS011;19920;52.242;20.940;2023-01-30T02:38:59;18.55;;;11.32;;
33593;SDS011;19920;52.242;20.940;2023-01-30T02:41:52;18.90;;;11.65;;
33593;SDS011;19920;52.242;20.940;2023-01-30T02:46:55;17.58;;;10.38;;
33593;SDS011;19920;52.242;20.940;2023-01-30T02:49:37;17.90;;;10.88;;
33593;SDS011;19920;52.242;20.940;2023-01-30T02:54:33;18.95;;;10.45;;
33593;SDS011;19920;52.242;20.940;2023-01-30T02:56:58;17.35;;;10.98;;
33593;SDS011;19920;52.242;20.940;2023-01-30T02:59:26;18.67;;;10.52;;
33593;SDS011;19920;52.242;20.940;2023-01-30T03:01:57;19.48;;;10.73;;
33593;SDS011;19920;52.242;20.940;2023-01-30T03:13:47;18.73;;;10.55;;
33593;SDS011;19920;52.242;20.940;2023-01-30T03:16:12;19.08;;;10.10;;
33593;SDS011;19920;52.242;20.940;2023-01-30T03:18:43;18.45;;;10.27;;
33593;SDS011;19920;52.242;20.940;2023-01-30T03:21:10;16.80;;;10.13;;
33593;SDS011;19920;52.242;20.940;2023-01-30T03:23:36;19.80;;;11.05;;
33593;SDS011;19920;52.242;20.940;2023-01-30T03:26:02;17.67;;;10.75;;
33593;SDS011;19920;52.242;20.940;2023-01-30T03:28:30;18.90;;;10.90;;
33593;SDS011;19920;52.242;20.940;2023-01-30T03:30:56;20.02;;;10.80;;
33593;SDS011;19920;52.242;20.940;2023-01-30T03:33:22;19.40;;;11.05;;
33593;SDS011;19920;52.242;20.940;2023-01-30T03:35:48;16.52;;;10.43;;
33593;SDS011;19920;52.242;20.940;2023-01-30T03:38:15;20.00;;;11.13;;
33593;SDS011;19920;52.242;20.940;2023-01-30T03:40:42;19.00;;;11.52;;
33593;SDS011;19920;52.242;20.940;2023-01-30T03:43:08;19.00;;;10.73;;
33593;SDS011;19920;52.242;20.940;2023-01-30T03:45:33;20.45;;;11.73;;
33593;SDS011;19920;52.242;20.940;2023-01-30T03:47:59;17.88;;;10.85;;
33593;SDS011;19920;52.242;20.940;2023-01-30T03:50:24;17.65;;;10.80;;
33593;SDS011;19920;52.242;20.940;2023-01-30T03:52:50;19.27;;;11.68;;
33593;SDS011;19920;52.242;20.940;2023-01-30T03:55:16;21.70;;;12.13;;
33593;SDS011;19920;52.242;20.940;2023-01-30T03:57:41;18.80;;;11.15;;
33593;SDS011;19920;52.242;20.940;2023-01-30T04:00:08;17.10;;;10.82;;
33593;SDS011;19920;52.242;20.940;2023-01-30T04:02:34;21.27;;;11.23;;
33593;SDS011;19920;52.242;20.940;2023-01-30T04:04:59;23.63;;;11.68;;
33593;SDS011;19920;52.242;20.940;2023-01-30T04:07:27;20.83;;;11.68;;
33593;SDS011;19920;52.242;20.940;2023-01-30T04:09:53;21.35;;;12.35;;
33593;SDS011;19920;52.242;20.940;2023-01-30T04:12:19;18.30;;;11.45;;
33593;SDS011;19920;52.242;20.940;2023-01-30T04:14:44;22.83;;;12.75;;
33593;SDS011;19920;52.242;20.940;2023-01-30T04:17:10;20.10;;;11.68;;
33593;SDS011;19920;52.242;20.940;2023-01-30T04:19:36;19.95;;;12.00;;
33593;SDS011;19920;52.242;20.940;2023-01-30T04:22:01;20.58;;;11.98;;
33593;SDS011;19920;52.242;20.940;2023-01-30T04:24:27;21.33;;;11.57;;
33593;SDS011;19920;52.242;20.940;2023-01-30T04:26:52;23.50;;;12.27;;
33593;SDS011;19920;52.242;20.940;2023-01-30T04:29:18;19.77;;;11.50;;
33593;SDS011;19920;52.242;20.940;2023-01-30T04:31:44;19.70;;;11.27;;
33593;SDS011;19920;52.242;20.940;2023-01-30T04:34:09;20.65;;;11.88;;
33593;SDS011;19920;52.242;20.940;2023-01-30T04:36:35;21.70;;;12.13;;
33593;SDS011;19920;52.242;20.940;2023-01-30T04:39:01;19.08;;;10.98;;
33593;SDS011;19920;52.242;20.940;2023-01-30T04:41:27;18.80;;;10.68;;
33593;SDS011;19920;52.242;20.940;2023-01-30T04:43:52;19.35;;;10.32;;
33593;SDS011;19920;52.242;20.940;2023-01-30T04:46:18;18.13;;;10.63;;
33593;SDS011;19920;52.242;20.940;2023-01-30T04:48:44;18.73;;;10.27;;
33593;SDS011;19920;52.242;20.940;2023-01-30T04:51:09;19.55;;;10.52;;
33593;SDS011;19920;52.242;20.940;2023-01-30T04:53:35;16.40;;;9.70;;
33593;SDS011;19920;52.242;20.940;2023-01-30T04:56:00;16.70;;;9.25;;
33593;SDS011;19920;52.242;20.940;2023-01-30T04:58:26;16.05;;;9.05;;
33593;SDS011;19920;52.242;20.940;2023-01-30T05:00:52;15.77;;;8.73;;
33593;SDS011;19920;52.242;20.940;2023-01-30T05:03:17;14.23;;;8.85;;
33593;SDS011;19920;52.242;20.940;2023-01-30T05:05:46;13.70;;;8.27;;
33593;SDS011;19920;52.242;20.940;2023-01-30T05:08:12;14.98;;;8.75;;
33593;SDS011;19920;52.242;20.940;2023-01-30T05:10:38;16.35;;;8.93;;
33593;SDS011;19920;52.242;20.940;2023-01-30T05:13:04;17.70;;;9.43;;
33593;SDS011;19920;52.242;20.940;2023-01-30T05:15:30;13.63;;;8.40;;
33593;SDS011;19920;52.242;20.940;2023-01-30T05:17:56;19.08;;;9.70;;
33593;SDS011;19920;52.242;20.940;2023-01-30T05:20:22;15.43;;;8.68;;
33593;SDS011;19920;52.242;20.940;2023-01-30T05:22:48;13.52;;;8.25;;
33593;SDS011;19920;52.242;20.940;2023-01-30T05:25:14;16.50;;;9.45;;
33593;SDS011;19920;52.242;20.940;2023-01-30T05:27:39;15.07;;;8.80;;
33593;SDS011;19920;52.242;20.940;2023-01-30T05:30:05;15.00;;;8.15;;
33593;SDS011;19920;52.242;20.940;2023-01-30T05:32:31;15.52;;;8.45;;
33593;SDS011;19920;52.242;20.940;2023-01-30T05:34:57;14.20;;;8.63;;
33593;SDS011;19920;52.242;20.940;2023-01-30T05:37:23;14.35;;;8.40;;
33593;SDS011;19920;52.242;20.940;2023-01-30T05:39:48;14.07;;;8.10;;
33593;SDS011;19920;52.242;20.940;2023-01-30T05:42:14;14.27;;;8.10;;
33593;SDS011;19920;52.242;20.940;2023-01-30T05:44:40;15.85;;;8.40;;
33593;SDS011;19920;52.242;20.940;2023-01-30T05:47:06;14.55;;;8.02;;
33593;SDS011;19920;52.242;20.940;2023-01-30T05:49:31;13.93;;;7.82;;
33593;SDS011;19920;52.242;20.940;2023-01-30T05:51:57;11.95;;;7.07;;
33593;SDS011;19920;52.242;20.940;2023-01-30T05:54:22;15.50;;;8.65;;
33593;SDS011;19920;52.242;20.940;2023-01-30T05:56:49;17.73;;;8.73;;
33593;SDS011;19920;52.242;20.940;2023-01-30T05:59:15;14.50;;;8.75;;
33593;SDS011;19920;52.242;20.940;2023-01-30T06:01:42;13.73;;;8.52;;
33593;SDS011;19920;52.242;20.940;2023-01-30T06:04:08;14.25;;;9.02;;
33593;SDS011;19920;52.242;20.940;2023-01-30T06:06:34;13.68;;;7.70;;
33593;SDS011;19920;52.242;20.940;2023-01-30T06:09:00;14.63;;;8.35;;
33593;SDS011;19920;52.242;20.940;2023-01-30T06:11:25;14.48;;;8.57;;
33593;SDS011;19920;52.242;20.940;2023-01-30T06:13:51;15.45;;;8.50;;
33593;SDS011;19920;52.242;20.940;2023-01-30T06:16:17;15.00;;;8.55;;
33593;SDS011;19920;52.242;20.940;2023-01-30T06:18:43;15.63;;;8.18;;
33593;SDS011;19920;52.242;20.940;2023-01-30T06:21:12;12.90;;;8.57;;
33593;SDS011;19920;52.242;20.940;2023-01-30T06:23:39;14.73;;;8.75;;
33593;SDS011;19920;52.242;20.940;2023-01-30T06:26:05;13.65;;;8.63;;
33593;SDS011;19920;52.242;20.940;2023-01-30T06:28:31;15.23;;;8.55;;
33593;SDS011;19920;52.242;20.940;2023-01-30T06:30:57;19.13;;;8.60;;
33593;SDS011;19920;52.242;20.940;2023-01-30T06:33:22;15.40;;;8.73;;
33593;SDS011;19920;52.242;20.940;2023-01-30T06:35:49;15.65;;;8.65;;
33593;SDS011;19920;52.242;20.940;2023-01-30T06:38:16;15.18;;;9.02;;
33593;SDS011;19920;52.242;20.940;2023-01-30T06:40:46;17.02;;;9.10;;
33593;SDS011;19920;52.242;20.940;2023-01-30T06:43:13;13.73;;;8.75;;
33593;SDS011;19920;52.242;20.940;2023-01-30T06:45:39;16.48;;;9.60;;
33593;SDS011;19920;52.242;20.940;2023-01-30T06:48:05;15.73;;;9.20;;
33593;SDS011;19920;52.242;20.940;2023-01-30T06:50:31;15.13;;;8.85;;
33593;SDS011;19920;52.242;20.940;2023-01-30T06:52:57;16.88;;;9.55;;
33593;SDS011;19920;52.242;20.940;2023-01-30T06:55:25;15.65;;;9.45;;
33593;SDS011;19920;52.242;20.940;2023-01-30T06:58:08;15.00;;;8.95;;
33593;SDS011;19920;52.242;20.940;2023-01-30T07:00:36;16.13;;;9.52;;
33593;SDS011;19920;52.242;20.940;2023-01-30T07:03:13;17.95;;;9.63;;
33593;SDS011;19920;52.242;20.940;2023-01-30T07:05:40;18.25;;;10.00;;
33593;SDS011;19920;52.242;20.940;2023-01-30T07:08:07;16.23;;;9.23;;
33593;SDS011;19920;52.242;20.940;2023-01-30T07:10:34;17.73;;;9.40;;
33593;SDS011;19920;52.242;20.940;2023-01-30T07:13:00;17.45;;;10.20;;
33593;SDS011;19920;52.242;20.940;2023-01-30T07:15:26;13.77;;;8.90;;
33593;SDS011;19920;52.242;20.940;2023-01-30T07:17:52;16.10;;;9.23;;
33593;SDS011;19920;52.242;20.940;2023-01-30T07:20:18;16.83;;;9.77;;
33593;SDS011;19920;52.242;20.940;2023-01-30T07:22:50;18.73;;;11.00;;
33593;SDS011;19920;52.242;20.940;2023-01-30T07:25:16;16.95;;;9.82;;
33593;SDS011;19920;52.242;20.940;2023-01-30T07:27:42;18.00;;;10.68;;
33593;SDS011;19920;52.242;20.940;2023-01-30T07:30:13;17.55;;;9.90;;
33593;SDS011;19920;52.242;20.940;2023-01-30T07:32:39;17.90;;;10.18;;
33593;SDS011;19920;52.242;20.940;2023-01-30T07:35:05;17.38;;;10.43;;
33593;SDS011;19920;52.242;20.940;2023-01-30T07:37:30;18.48;;;10.27;;
33593;SDS011;19920;52.242;20.940;2023-01-30T07:39:56;19.52;;;10.93;;
33593;SDS011;19920;52.242;20.940;2023-01-30T07:42:22;20.98;;;11.50;;
33593;SDS011;19920;52.242;20.940;2023-01-30T07:44:48;22.38;;;12.45;;
33593;SDS011;19920;52.242;20.940;2023-01-30T07:47:13;21.00;;;12.15;;
33593;SDS011;19920;52.242;20.940;2023-01-30T07:49:39;20.10;;;11.07;;
33593;SDS011;19920;52.242;20.940;2023-01-30T07:52:04;19.65;;;11.25;;
33593;SDS011;19920;52.242;20.940;2023-01-30T07:54:30;22.27;;;11.73;;
33593;SDS011;19920;52.242;20.940;2023-01-30T07:56:55;20.55;;;11.98;;
33593;SDS011;19920;52.242;20.940;2023-01-30T07:59:21;19.95;;;11.43;;
33593;SDS011;19920;52.242;20.940;2023-01-30T08:01:47;22.08;;;12.38;;
33593;SDS011;19920;52.242;20.940;2023-01-30T08:04:12;21.48;;;11.77;;
33593;SDS011;19920;52.242;20.940;2023-01-30T08:06:38;26.35;;;13.40;;
33593;SDS011;19920;52.242;20.940;2023-01-30T08:09:04;22.63;;;12.75;;
33593;SDS011;19920;52.242;20.940;2023-01-30T08:11:30;21.73;;;12.60;;
33593;SDS011;19920;52.242;20.940;2023-01-30T08:13:56;26.58;;;14.32;;
33593;SDS011;19920;52.242;20.940;2023-01-30T08:16:21;25.27;;;13.95;;
33593;SDS011;19920;52.242;20.940;2023-01-30T08:18:47;24.80;;;15.07;;
33593;SDS011;19920;52.242;20.940;2023-01-30T08:21:13;29.55;;;14.95;;
33593;SDS011;19920;52.242;20.940;2023-01-30T08:23:38;28.58;;;15.00;;
33593;SDS011;19920;52.242;20.940;2023-01-30T08:26:04;25.05;;;14.40;;
33593;SDS011;19920;52.242;20.940;2023-01-30T08:28:30;26.13;;;13.68;;
33593;SDS011;19920;52.242;20.940;2023-01-30T08:30:56;25.27;;;14.00;;
33593;SDS011;19920;52.242;20.940;2023-01-30T08:33:23;27.75;;;15.27;;
33593;SDS011;19920;52.242;20.940;2023-01-30T08:35:49;26.92;;;14.48;;
33593;SDS011;19920;52.242;20.940;2023-01-30T08:38:15;27.60;;;15.13;;
33593;SDS011;19920;52.242;20.940;2023-01-30T08:40:41;28.08;;;14.73;;
33593;SDS011;19920;52.242;20.940;2023-01-30T08:43:07;27.05;;;14.88;;
33593;SDS011;19920;52.242;20.940;2023-01-30T08:45:34;24.77;;;14.60;;
33593;SDS011;19920;52.242;20.940;2023-01-30T08:48:00;27.88;;;14.45;;
33593;SDS011;19920;52.242;20.940;2023-01-30T08:50:27;28.05;;;15.15;;
33593;SDS011;19920;52.242;20.940;2023-01-30T08:52:54;30.02;;;15.93;;
33593;SDS011;19920;52.242;20.940;2023-01-30T08:55:20;27.60;;;14.75;;
33593;SDS011;19920;52.242;20.940;2023-01-30T08:57:47;28.02;;;15.23;;
33593;SDS011;19920;52.242;20.940;2023-01-30T09:00:13;26.10;;;15.27;;
33593;SDS011;19920;52.242;20.940;2023-01-30T09:02:39;26.00;;;15.27;;
33593;SDS011;19920;52.242;20.940;2023-01-30T09:05:05;29.05;;;16.38;;
33593;SDS011;19920;52.242;20.940;2023-01-30T09:07:31;28.45;;;15.88;;
33593;SDS011;19920;52.242;20.940;2023-01-30T09:09:57;29.00;;;16.80;;
33593;SDS011;19920;52.242;20.940;2023-01-30T09:12:23;27.65;;;15.88;;
33593;SDS011;19920;52.242;20.940;2023-01-30T09:14:49;27.83;;;16.02;;
33593;SDS011;19920;52.242;20.940;2023-01-30T09:17:17;30.38;;;16.85;;
33593;SDS011;19920;52.242;20.940;2023-01-30T09:19:42;32.70;;;19.10;;
33593;SDS011;19920;52.242;20.940;2023-01-30T09:22:08;29.73;;;16.23;;
33593;SDS011;19920;52.242;20.940;2023-01-30T09:24:33;27.77;;;15.27;;
33593;SDS011;19920;52.242;20.940;2023-01-30T09:26:59;29.45;;;15.07;;
33593;SDS011;19920;52.242;20.940;2023-01-30T09:29:25;24.95;;;14.77;;
33593;SDS011;19920;52.242;20.940;2023-01-30T09:31:51;28.40;;;15.80;;
33593;SDS011;19920;52.242;20.940;2023-01-30T09:34:20;25.67;;;15.43;;
33593;SDS011;19920;52.242;20.940;2023-01-30T09:36:51;30.13;;;16.45;;
33593;SDS011;19920;52.242;20.940;2023-01-30T09:39:17;28.60;;;15.35;;
33593;SDS011;19920;52.242;20.940;2023-01-30T09:47:39;27.45;;;14.77;;
33593;SDS011;19920;52.242;20.940;2023-01-30T09:55:54;27.27;;;14.73;;
33593;SDS011;19920;52.242;20.940;2023-01-30T09:58:22;26.20;;;14.45;;
33593;SDS011;19920;52.242;20.940;2023-01-30T10:00:52;28.00;;;14.70;;
33593;SDS011;19920;52.242;20.940;2023-01-30T10:04:08;24.02;;;13.95;;
33593;SDS011;19920;52.242;20.940;2023-01-30T10:06:25;24.40;;;14.27;;
33593;SDS011;19920;52.242;20.940;2023-01-30T10:09:12;23.20;;;13.63;;
33593;SDS011;19920;52.242;20.940;2023-01-30T10:12:05;24.20;;;14.23;;
33593;SDS011;19920;52.242;20.940;2023-01-30T10:23:11;22.05;;;13.43;;
33593;SDS011;19920;52.242;20.940;2023-01-30T10:25:43;27.05;;;14.93;;
33593;SDS011;19920;52.242;20.940;2023-01-30T10:28:27;23.02;;;13.27;;
33593;SDS011;19920;52.242;20.940;2023-01-30T10:31:09;24.85;;;13.95;;
33593;SDS011;19920;52.242;20.940;2023-01-30T10:36:22;23.27;;;12.68;;
33593;SDS011;19920;52.242;20.940;2023-01-30T10:38:53;22.35;;;13.90;;
33593;SDS011;19920;52.242;20.940;2023-01-30T10:44:08;27.85;;;13.98;;
33593;SDS011;19920;52.242;20.940;2023-01-30T10:46:59;24.67;;;14.52;;
33593;SDS011;19920;52.242;20.940;2023-01-30T10:49:38;23.38;;;13.77;;
33593;SDS011;19920;52.242;20.940;2023-01-30T10:57:46;27.33;;;15.13;;
33593;SDS011;19920;52.242;20.940;2023-01-30T11:03:10;23.00;;;13.38;;
33593;SDS011;19920;52.242;20.940;2023-01-30T11:05:41;22.95;;;13.65;;
33593;SDS011;19920;52.242;20.940;2023-01-30T11:08:24;23.55;;;13.52;;
33593;SDS011;19920;52.242;20.940;2023-01-30T11:10:55;26.67;;;12.73;;
33593;SDS011;19920;52.242;20.940;2023-01-30T11:13:23;24.63;;;13.38;;
33593;SDS011;19920;52.242;20.940;2023-01-30T11:15:58;18.10;;;11.38;;
33593;SDS011;19920;52.242;20.940;2023-01-30T11:18:28;19.95;;;12.05;;
33593;SDS011;19920;52.242;20.940;2023-01-30T11:21:00;19.25;;;11.18;;
33593;SDS011;19920;52.242;20.940;2023-01-30T11:26:07;18.52;;;11.05;;
33593;SDS011;19920;52.242;20.940;2023-01-30T11:28:45;19.20;;;11.65;;
33593;SDS011;19920;52.242;20.940;2023-01-30T11:31:18;16.85;;;10.82;;
33593;SDS011;19920;52.242;20.940;2023-01-30T11:33:58;19.10;;;11.20;;
33593;SDS011;19920;52.242;20.940;2023-01-30T11:36:29;17.70;;;11.07;;
33593;SDS011;19920;52.242;20.940;2023-01-30T11:39:18;20.17;;;9.80;;
33593;SDS011;19920;52.242;20.940;2023-01-30T11:44:32;15.82;;;8.85;;
33593;SDS011;19920;52.242;20.940;2023-01-30T11:47:06;13.95;;;8.80;;
33593;SDS011;19920;52.242;20.940;2023-01-30T11:49:57;13.35;;;8.50;;
33593;SDS011;19920;52.242;20.940;2023-01-30T11:52:27;14.05;;;8.80;;
33593;SDS011;19920;52.242;20.940;2023-01-30T11:55:00;13.90;;;8.90;;
33593;SDS011;19920;52.242;20.940;2023-01-30T11:57:38;14.52;;;9.95;;
33593;SDS011;19920;52.242;20.940;2023-01-30T12:00:12;17.42;;;9.77;;
33593;SDS011;19920;52.242;20.940;2023-01-30T12:02:42;14.23;;;8.38;;
33593;SDS011;19920;52.242;20.940;2023-01-30T12:05:17;14.93;;;9.40;;
33593;SDS011;19920;52.242;20.940;2023-01-30T12:07:46;13.82;;;8.48;;
33593;SDS011;19920;52.242;20.940;2023-01-30T12:10:25;14.57;;;9.18;;
33593;SDS011;19920;52.242;20.940;2023-01-30T12:12:54;17.95;;;10.43;;
33593;SDS011;19920;52.242;20.940;2023-01-30T12:15:24;14.85;;;9.70;;
33593;SDS011;19920;52.242;20.940;2023-01-30T12:25:43;16.48;;;9.48;;
33593;SDS011;19920;52.242;20.940;2023-01-30T12:31:42;16.15;;;9.93;;
33593;SDS011;19920;52.242;20.940;2023-01-30T12:34:14;17.10;;;10.02;;
33593;SDS011;19920;52.242;20.940;2023-01-30T12:39:53;17.98;;;11.40;;
33593;SDS011;19920;52.242;20.940;2023-01-30T12:45:21;14.88;;;10.02;;
33593;SDS011;19920;52.242;20.940;2023-01-30T12:48:11;14.57;;;9.40;;
33593;SDS011;19920;52.242;20.940;2023-01-30T13:01:19;17.05;;;10.05;;
33593;SDS011;19920;52.242;20.940;2023-01-30T13:09:35;19.10;;;11.38;;
33593;SDS011;19920;52.242;20.940;2023-01-30T13:12:20;19.05;;;10.80;;
33593;SDS011;19920;52.242;20.940;2023-01-30T13:20:35;17.85;;;11.60;;
33593;SDS011;19920;52.242;20.940;2023-01-30T13:25:57;18.30;;;11.77;;
33593;SDS011;19920;52.242;20.940;2023-01-30T13:28:35;21.27;;;12.07;;
33593;SDS011;19920;52.242;20.940;2023-01-30T13:31:08;18.33;;;11.30;;
33593;SDS011;19920;52.242;20.940;2023-01-30T13:33:40;17.40;;;11.32;;
33593;SDS011;19920;52.242;20.940;2023-01-30T13:36:10;21.67;;;12.38;;
33593;SDS011;19920;52.242;20.940;2023-01-30T13:38:55;20.23;;;13.10;;
33593;SDS011;19920;52.242;20.940;2023-01-30T13:41:47;20.60;;;12.85;;
33593;SDS011;19920;52.242;20.940;2023-01-30T13:46:55;21.27;;;12.35;;
33593;SDS011;19920;52.242;20.940;2023-01-30T13:49:29;23.77;;;13.63;;
33593;SDS011;19920;52.242;20.940;2023-01-30T13:55:05;20.55;;;12.80;;
33593;SDS011;19920;52.242;20.940;2023-01-30T13:57:49;20.90;;;13.20;;
33593;SDS011;19920;52.242;20.940;2023-01-30T14:00:31;24.50;;;13.98;;
33593;SDS011;19920;52.242;20.940;2023-01-30T14:08:27;24.67;;;14.05;;
33593;SDS011;19920;52.242;20.940;2023-01-30T14:10:56;24.90;;;13.18;;
33593;SDS011;19920;52.242;20.940;2023-01-30T14:13:23;19.75;;;13.02;;
33593;SDS011;19920;52.242;20.940;2023-01-30T14:15:58;20.92;;;13.13;;
33593;SDS011;19920;52.242;20.940;2023-01-30T14:18:34;20.58;;;13.25;;
33593;SDS011;19920;52.242;20.940;2023-01-30T14:23:54;19.38;;;12.32;;
33593;SDS011;19920;52.242;20.940;2023-01-30T14:29:11;20.23;;;12.23;;
33593;SDS011;19920;52.242;20.940;2023-01-30T14:31:56;18.83;;;12.88;;
33593;SDS011;19920;52.242;20.940;2023-01-30T14:34:39;20.60;;;13.48;;
33593;SDS011;19920;52.242;20.940;2023-01-30T14:39:53;21.00;;;12.77;;
33593;SDS011;19920;52.242;20.940;2023-01-30T14:47:40;20.63;;;13.70;;
33593;SDS011;19920;52.242;20.940;2023-01-30T14:50:20;21.08;;;13.73;;
33593;SDS011;19920;52.242;20.940;2023-01-30T14:52:47;21.90;;;14.10;;
33593;SDS011;19920;52.242;20.940;2023-01-30T14:55:21;24.38;;;14.68;;
33593;SDS011;19920;52.242;20.940;2023-01-30T14:57:55;23.48;;;14.63;;
33593;SDS011;19920;52.242;20.940;2023-01-30T15:00:28;22.95;;;13.43;;
33593;SDS011;19920;52.242;20.940;2023-01-30T15:03:03;22.23;;;13.48;;
33593;SDS011;19920;52.242;20.940;2023-01-30T15:05:35;22.05;;;13.82;;
33593;SDS011;19920;52.242;20.940;2023-01-30T15:08:11;18.33;;;12.80;;
33593;SDS011;19920;52.242;20.940;2023-01-30T15:29:54;21.33;;;12.70;;
33593;SDS011;19920;52.242;20.940;2023-01-30T15:32:26;21.55;;;13.25;;
33593;SDS011;19920;52.242;20.940;2023-01-30T15:34:58;19.80;;;12.30;;
33593;SDS011;19920;52.242;20.940;2023-01-30T15:51:24;18.30;;;11.48;;
33593;SDS011;19920;52.242;20.940;2023-01-30T15:53:52;14.40;;;10.65;;
33593;SDS011;19920;52.242;20.940;2023-01-30T15:56:20;22.00;;;11.52;;
33593;SDS011;19920;52.242;20.940;2023-01-30T15:58:48;18.15;;;11.20;;
33593;SDS011;19920;52.242;20.940;2023-01-30T16:01:18;19.10;;;10.57;;
33593;SDS011;19920;52.242;20.940;2023-01-30T16:03:45;15.88;;;10.30;;
33593;SDS011;19920;52.242;20.940;2023-01-30T16:06:21;14.88;;;9.82;;
33593;SDS011;19920;52.242;20.940;2023-01-30T16:09:00;16.83;;;10.45;;
33593;SDS011;19920;52.242;20.940;2023-01-30T16:11:33;16.17;;;10.37;;
33593;SDS011;19920;52.242;20.940;2023-01-30T16:14:14;17.55;;;10.27;;
33593;SDS011;19920;52.242;20.940;2023-01-30T16:16:52;20.83;;;10.60;;
33593;SDS011;19920;52.242;20.940;2023-01-30T16:19:25;17.45;;;11.18;;
33593;SDS011;19920;52.242;20.940;2023-01-30T16:21:58;18.33;;;10.13;;
33593;SDS011;19920;52.242;20.940;2023-01-30T16:24:26;18.50;;;9.80;;
33593;SDS011;19920;52.242;20.940;2023-01-30T16:26:57;16.95;;;10.13;;
33593;SDS011;19920;52.242;20.940;2023-01-30T16:29:26;18.27;;;10.65;;
33593;SDS011;19920;52.242;20.940;2023-01-30T16:31:54;18.90;;;11.13;;
33593;SDS011;19920;52.242;20.940;2023-01-30T16:34:26;17.63;;;9.75;;
33593;SDS011;19920;52.242;20.940;2023-01-30T16:37:03;18.30;;;11.30;;
33593;SDS011;19920;52.242;20.940;2023-01-30T16:39:44;16.23;;;10.23;;
33593;SDS011;19920;52.242;20.940;2023-01-30T16:42:25;18.65;;;10.02;;
33593;SDS011;19920;52.242;20.940;2023-01-30T16:47:36;21.02;;;10.27;;
33593;SDS011;19920;52.242;20.940;2023-01-30T16:50:03;17.13;;;10.25;;
33593;SDS011;19920;52.242;20.940;2023-01-30T16:52:44;18.13;;;10.60;;
33593;SDS011;19920;52.242;20.940;2023-01-30T16:55:18;19.48;;;9.98;;
33593;SDS011;19920;52.242;20.940;2023-01-30T16:57:52;16.77;;;10.52;;
33593;SDS011;19920;52.242;20.940;2023-01-30T17:00:27;16.52;;;9.93;;
33593;SDS011;19920;52.242;20.940;2023-01-30T17:03:01;18.42;;;10.55;;
33593;SDS011;19920;52.242;20.940;2023-01-30T17:05:30;20.10;;;10.73;;
33593;SDS011;19920;52.242;20.940;2023-01-30T17:08:03;15.23;;;9.70;;
33593;SDS011;19920;52.242;20.940;2023-01-30T17:13:04;18.25;;;9.95;;
33593;SDS011;19920;52.242;20.940;2023-01-30T17:16:14;18.60;;;9.85;;
33593;SDS011;19920;52.242;20.940;2023-01-30T17:18:46;16.63;;;9.65;;